createdAt,value
2022-12-24T00:01:37.977Z,7.27
2022-12-24T00:04:06.661Z,6.80
2022-12-24T00:06:35.265Z,6.97
2022-12-24T00:09:03.793Z,7.60
2022-12-24T00:11:32.271Z,7.20
2022-12-24T00:14:02.149Z,8.63
2022-12-24T00:16:30.642Z,8.00
2022-12-24T00:18:59.050Z,8.43
2022-12-24T00:21:27.569Z,8.43
2022-12-24T00:23:55.973Z,8.17
2022-12-24T00:26:24.516Z,9.70
2022-12-24T00:28:53.090Z,11.20
2022-12-24T00:31:23.127Z,12.57
2022-12-24T00:33:51.813Z,12.87
2022-12-24T00:36:21.230Z,13.13
2022-12-24T00:38:49.656Z,12.87
2022-12-24T00:41:29.422Z,14.37
2022-12-24T00:43:59.463Z,14.10
2022-12-24T00:46:31.312Z,15.53
2022-12-24T00:48:59.923Z,13.33
2022-12-24T00:51:28.762Z,17.53
2022-12-24T00:53:57.398Z,16.57
2022-12-24T00:56:26.150Z,14.80
2022-12-24T00:58:55.397Z,13.73
2022-12-24T01:01:24.398Z,14.50
2022-12-24T01:04:15.874Z,13.40
2022-12-24T01:06:43.576Z,13.07
2022-12-24T01:09:12.346Z,11.47
2022-12-24T01:11:40.780Z,11.37
2022-12-24T01:14:09.239Z,11.90
2022-12-24T01:16:37.723Z,11.93
2022-12-24T01:19:07.567Z,11.27
2022-12-24T01:21:36.029Z,12.73
2022-12-24T01:24:04.592Z,12.17
2022-12-24T01:26:33.018Z,11.50
2022-12-24T01:29:01.560Z,12.13
2022-12-24T01:31:30.021Z,12.63
2022-12-24T01:33:58.820Z,15.47
2022-12-24T01:36:28.868Z,15.47
2022-12-24T01:38:57.433Z,15.77
2022-12-24T01:41:43.549Z,16.57
2022-12-24T01:44:33.514Z,14.97
2022-12-24T01:47:10.105Z,13.67
2022-12-24T01:49:43.686Z,14.63
2022-12-24T01:52:18.332Z,16.13
2022-12-24T01:54:52.104Z,14.40
2022-12-24T01:57:25.117Z,14.50
2022-12-24T01:59:58.142Z,14.53
2022-12-24T02:02:27.671Z,13.60
2022-12-24T02:05:03.362Z,12.10
2022-12-24T02:07:33.824Z,10.00
2022-12-24T02:10:04.102Z,8.43
2022-12-24T02:12:36.641Z,8.03
2022-12-24T02:15:06.885Z,7.07
2022-12-24T02:17:44.328Z,6.40
2022-12-24T02:20:48.978Z,6.23
2022-12-24T02:23:40.946Z,5.50
2022-12-24T02:26:28.660Z,6.00
2022-12-24T02:29:23.760Z,5.87
2022-12-24T02:32:00.583Z,4.90
2022-12-24T02:34:35.010Z,5.30
2022-12-24T02:37:08.298Z,5.50
2022-12-24T02:39:44.472Z,5.30
2022-12-24T02:42:17.181Z,5.40
2022-12-24T02:44:50.682Z,4.93
2022-12-24T02:47:23.386Z,5.67
2022-12-24T02:49:51.926Z,6.33
2022-12-24T02:52:34.075Z,7.07
2022-12-24T02:55:07.610Z,6.83
2022-12-24T02:57:56.007Z,7.40
2022-12-24T03:00:25.585Z,7.33
2022-12-24T03:03:21.136Z,7.47
2022-12-24T03:05:53.085Z,6.87
2022-12-24T03:08:33.958Z,7.00
2022-12-24T03:11:06.856Z,6.97
2022-12-24T03:13:35.983Z,6.27
2022-12-24T03:16:07.846Z,6.47
2022-12-24T03:18:40.266Z,5.50
2022-12-24T03:21:13.577Z,6.17
2022-12-24T03:23:42.360Z,5.70
2022-12-24T03:26:13.665Z,5.30
2022-12-24T03:28:43.788Z,5.47
2022-12-24T03:31:12.775Z,5.07
2022-12-24T03:33:43.156Z,4.40
2022-12-24T03:36:12.285Z,4.53
2022-12-24T03:38:41.162Z,5.47
2022-12-24T03:41:09.957Z,5.07
2022-12-24T03:43:38.652Z,4.63
2022-12-24T03:46:08.186Z,4.37
2022-12-24T03:48:37.374Z,4.50
2022-12-24T03:51:07.639Z,4.63
2022-12-24T03:53:36.168Z,4.33
2022-12-24T03:56:04.896Z,3.90
2022-12-24T03:58:33.277Z,3.70
2022-12-24T04:01:01.832Z,4.03
2022-12-24T04:03:30.481Z,3.67
2022-12-24T04:06:04.260Z,4.23
2022-12-24T04:08:34.485Z,4.03
2022-12-24T04:11:09.352Z,3.60
2022-12-24T04:13:38.725Z,3.73
2022-12-24T04:16:10.072Z,2.77
2022-12-24T04:18:39.512Z,2.43
2022-12-24T04:21:08.585Z,2.80
2022-12-24T04:23:39.628Z,2.77
2022-12-24T04:26:10.179Z,2.53
2022-12-24T04:28:39.356Z,2.77
2022-12-24T04:31:09.784Z,2.90
2022-12-24T04:33:38.789Z,2.77
2022-12-24T04:36:08.408Z,2.60
2022-12-24T04:38:38.462Z,2.47
2022-12-24T04:41:08.857Z,2.87
2022-12-24T04:43:37.541Z,2.73
2022-12-24T04:46:08.022Z,2.87
2022-12-24T04:48:36.878Z,2.93
2022-12-24T04:51:06.445Z,2.83
2022-12-24T04:53:35.810Z,2.80
2022-12-24T04:56:06.394Z,2.57
2022-12-24T04:58:36.966Z,2.90
2022-12-24T05:01:06.549Z,3.10
2022-12-24T05:03:35.908Z,3.13
2022-12-24T05:06:04.745Z,3.40
2022-12-24T05:08:34.035Z,3.00
2022-12-24T05:11:03.811Z,3.80
2022-12-24T05:13:40.676Z,4.00
2022-12-24T05:16:15.024Z,3.60
2022-12-24T05:18:43.700Z,3.60
2022-12-24T05:21:14.890Z,3.50
2022-12-24T05:24:00.909Z,3.13
2022-12-24T05:26:32.349Z,2.90
2022-12-24T05:29:03.684Z,2.60
2022-12-24T05:31:34.868Z,2.60
2022-12-24T05:34:03.834Z,2.73
2022-12-24T05:36:32.801Z,2.63
2022-12-24T05:39:01.725Z,2.50
2022-12-24T05:41:30.215Z,2.40
2022-12-24T05:43:58.693Z,2.43
2022-12-24T05:46:28.707Z,2.60
2022-12-24T05:48:57.271Z,2.50
2022-12-24T05:51:26.076Z,2.60
2022-12-24T05:53:54.641Z,2.43
2022-12-24T05:56:25.176Z,2.70
2022-12-24T05:58:55.148Z,2.37
2022-12-24T06:01:24.525Z,2.73
2022-12-24T06:03:54.997Z,2.30
2022-12-24T06:06:25.254Z,2.13
2022-12-24T06:08:55.156Z,2.57
2022-12-24T06:11:25.772Z,2.60
2022-12-24T06:13:54.982Z,2.87
2022-12-24T06:16:24.971Z,3.33
2022-12-24T06:18:55.721Z,2.67
2022-12-24T06:21:24.378Z,2.47
2022-12-24T06:23:52.950Z,2.40
2022-12-24T06:26:24.205Z,2.47
2022-12-24T06:28:53.420Z,3.03
2022-12-24T06:31:24.886Z,3.07
2022-12-24T06:33:55.539Z,2.60
2022-12-24T06:36:26.506Z,2.40
2022-12-24T06:38:56.232Z,3.13
2022-12-24T06:41:25.431Z,3.00
2022-12-24T06:43:54.908Z,2.83
2022-12-24T06:46:23.718Z,2.70
2022-12-24T06:48:52.474Z,3.27
2022-12-24T06:51:22.529Z,3.50
2022-12-24T06:53:51.931Z,2.97
2022-12-24T06:56:23.703Z,3.10
2022-12-24T06:58:52.336Z,3.07
2022-12-24T07:01:22.299Z,2.63
2022-12-24T07:03:51.174Z,3.60
2022-12-24T07:06:25.468Z,3.60
2022-12-24T07:08:53.955Z,2.77
2022-12-24T07:11:22.832Z,3.10
2022-12-24T07:13:51.251Z,3.17
2022-12-24T07:16:19.838Z,3.03
2022-12-24T07:18:50.168Z,3.37
2022-12-24T07:21:18.563Z,3.30
2022-12-24T07:23:51.089Z,2.60
2022-12-24T07:26:19.637Z,3.00
2022-12-24T07:28:48.070Z,2.50
2022-12-24T07:31:16.512Z,2.80
2022-12-24T07:33:44.914Z,2.43
2022-12-24T07:36:20.281Z,2.30
2022-12-24T07:38:50.483Z,3.10
2022-12-24T07:41:18.930Z,2.20
2022-12-24T07:43:47.424Z,1.90
2022-12-24T07:46:15.980Z,2.10
2022-12-24T07:48:44.527Z,1.80
2022-12-24T07:51:12.883Z,2.13
2022-12-24T07:53:47.889Z,2.20
2022-12-24T07:56:18.476Z,1.90
2022-12-24T07:58:46.991Z,2.13
2022-12-24T08:01:15.482Z,2.17
2022-12-24T08:03:44.114Z,2.90
2022-12-24T08:06:13.327Z,2.23
2022-12-24T08:08:41.863Z,2.67
2022-12-24T08:11:10.528Z,3.03
2022-12-24T08:13:40.665Z,3.07
2022-12-24T08:16:09.214Z,3.07
2022-12-24T08:18:37.785Z,3.53
2022-12-24T08:21:08.742Z,3.77
2022-12-24T08:23:37.339Z,3.90
2022-12-24T08:26:08.730Z,4.47
2022-12-24T08:28:37.208Z,4.00
2022-12-24T08:31:08.274Z,4.50
2022-12-24T08:33:36.957Z,4.33
2022-12-24T08:36:05.841Z,4.67
2022-12-24T08:38:34.431Z,4.63
2022-12-24T08:41:02.944Z,5.13
2022-12-24T08:43:31.800Z,5.50
2022-12-24T08:46:05.165Z,5.47
2022-12-24T08:48:35.835Z,5.63
2022-12-24T08:51:09.144Z,5.93
2022-12-24T08:53:38.189Z,6.07
2022-12-24T08:56:09.132Z,6.27
2022-12-24T08:58:38.197Z,6.80
2022-12-24T09:01:13.872Z,6.30
2022-12-24T09:03:44.596Z,6.50
2022-12-24T09:06:13.603Z,6.70
2022-12-24T09:08:42.066Z,6.70
2022-12-24T09:11:12.854Z,6.97
2022-12-24T09:13:41.788Z,7.43
2022-12-24T09:16:11.278Z,7.10
2022-12-24T09:18:40.566Z,6.87
2022-12-24T09:21:14.668Z,6.13
2022-12-24T09:23:44.566Z,6.60
2022-12-24T09:26:16.808Z,6.47
2022-12-24T09:28:45.324Z,5.90
2022-12-24T09:31:14.952Z,7.23
2022-12-24T09:33:45.161Z,7.20
2022-12-24T09:36:15.777Z,7.70
2022-12-24T09:38:44.801Z,6.90
2022-12-24T09:41:15.193Z,6.57
2022-12-24T09:43:49.175Z,6.33
2022-12-24T09:46:26.579Z,6.40
2022-12-24T09:48:59.330Z,7.33
2022-12-24T09:51:35.657Z,7.07
2022-12-24T09:54:07.414Z,7.47
2022-12-24T09:56:40.503Z,7.03
2022-12-24T09:59:15.850Z,6.53
2022-12-24T10:01:44.716Z,6.87
2022-12-24T10:04:15.922Z,6.80
2022-12-24T10:06:53.793Z,6.20
2022-12-24T10:09:32.717Z,6.40
2022-12-24T10:12:07.745Z,6.17
2022-12-24T10:14:52.770Z,6.10
2022-12-24T10:17:35.163Z,6.23
2022-12-24T10:20:22.903Z,6.07
2022-12-24T10:22:58.600Z,6.13
2022-12-24T10:25:32.321Z,5.70
2022-12-24T10:28:04.077Z,5.63
2022-12-24T10:30:32.607Z,5.27
2022-12-24T10:33:01.276Z,5.20
2022-12-24T10:35:33.926Z,5.67
2022-12-24T10:38:04.657Z,6.07
2022-12-24T10:40:38.796Z,5.83
2022-12-24T10:43:16.188Z,5.73
2022-12-24T10:45:48.168Z,6.23
2022-12-24T10:48:24.490Z,4.83
2022-12-24T10:50:57.501Z,5.80
2022-12-24T10:53:35.709Z,5.83
2022-12-24T10:56:07.052Z,4.70
2022-12-24T10:58:36.206Z,5.07
2022-12-24T11:01:06.016Z,4.57
2022-12-24T11:03:36.471Z,5.67
2022-12-24T11:06:10.121Z,5.67
2022-12-24T11:08:43.419Z,5.57
2022-12-24T11:11:15.195Z,5.23
2022-12-24T11:13:46.667Z,5.13
2022-12-24T11:16:22.701Z,5.07
2022-12-24T11:18:53.735Z,5.07
2022-12-24T11:21:27.328Z,5.70
2022-12-24T11:24:00.887Z,5.60
2022-12-24T11:26:31.979Z,5.93
2022-12-24T11:29:14.924Z,6.53
2022-12-24T11:31:44.099Z,6.07
2022-12-24T11:34:34.062Z,6.17
2022-12-24T11:37:14.928Z,5.93
2022-12-24T11:39:49.068Z,5.87
2022-12-24T11:42:35.583Z,5.53
2022-12-24T11:45:07.324Z,5.30
2022-12-24T11:47:41.472Z,4.87
2022-12-24T11:50:28.653Z,5.00
2022-12-24T11:53:08.800Z,5.00
2022-12-24T11:55:46.688Z,5.40
2022-12-24T11:58:27.091Z,5.50
2022-12-24T12:01:06.579Z,5.07
2022-12-24T12:03:43.808Z,4.50
2022-12-24T12:06:34.708Z,4.77
2022-12-24T12:09:07.070Z,5.17
2022-12-24T12:11:40.052Z,4.83
2022-12-24T12:14:17.842Z,4.40
2022-12-24T12:17:04.211Z,5.17
2022-12-24T12:19:40.941Z,4.73
2022-12-24T12:22:18.074Z,5.07
2022-12-24T12:24:53.124Z,4.63
2022-12-24T12:27:29.782Z,5.03
2022-12-24T12:30:02.886Z,5.50
2022-12-24T12:32:44.936Z,5.13
2022-12-24T12:35:24.525Z,5.60
2022-12-24T12:37:58.480Z,5.27
2022-12-24T12:40:48.198Z,4.60
2022-12-24T12:43:30.516Z,3.80
2022-12-24T12:46:08.338Z,4.57
2022-12-24T12:48:54.560Z,4.87
2022-12-24T12:51:34.125Z,4.63
2022-12-24T12:54:22.472Z,4.27
2022-12-24T12:56:56.584Z,4.37
2022-12-24T12:59:34.500Z,4.03
2022-12-24T13:02:14.052Z,4.37
2022-12-24T13:05:15.562Z,4.47
2022-12-24T13:08:00.941Z,3.87
2022-12-24T13:10:58.694Z,4.10
2022-12-24T13:13:52.235Z,3.77
2022-12-24T13:16:53.922Z,4.70
2022-12-24T13:19:44.523Z,3.47
2022-12-24T13:22:18.078Z,3.77
2022-12-24T13:24:52.264Z,3.70
2022-12-24T13:27:25.290Z,3.20
2022-12-24T13:29:57.088Z,4.00
2022-12-24T13:32:57.341Z,3.90
2022-12-24T13:35:37.539Z,3.73
2022-12-24T13:38:43.970Z,3.43
2022-12-24T13:41:58.222Z,3.70
2022-12-24T13:44:39.597Z,3.97
2022-12-24T13:47:31.726Z,3.37
2022-12-24T13:50:22.806Z,3.70
2022-12-24T13:52:54.171Z,4.57
2022-12-24T13:55:23.568Z,3.83
2022-12-24T13:57:58.807Z,3.83
2022-12-24T14:00:32.299Z,3.50
2022-12-24T14:03:06.168Z,4.27
2022-12-24T14:05:40.390Z,3.70
2022-12-24T14:08:12.801Z,3.60
2022-12-24T14:10:43.714Z,3.30
2022-12-24T14:13:45.286Z,3.13
2022-12-24T14:16:16.532Z,3.13
2022-12-24T14:18:50.075Z,3.20
2022-12-24T14:21:25.225Z,2.67
2022-12-24T14:23:57.162Z,2.87
2022-12-24T14:26:30.523Z,2.50
2022-12-24T14:29:01.428Z,2.57
2022-12-24T14:31:29.971Z,3.30
2022-12-24T14:34:08.401Z,3.03
2022-12-24T14:36:38.718Z,3.10
2022-12-24T14:39:10.629Z,3.20
2022-12-24T14:41:49.214Z,2.80
2022-12-24T14:44:35.523Z,3.23
2022-12-24T14:47:16.902Z,2.70
2022-12-24T14:50:01.809Z,3.27
2022-12-24T14:53:04.614Z,3.13
2022-12-24T14:55:41.206Z,2.83
2022-12-24T14:58:25.700Z,2.90
2022-12-24T15:00:56.113Z,2.93
2022-12-24T15:03:26.097Z,3.17
2022-12-24T15:05:57.998Z,2.63
2022-12-24T15:08:34.240Z,2.87
2022-12-24T15:11:06.477Z,2.73
2022-12-24T15:13:38.555Z,3.23
2022-12-24T15:16:09.768Z,3.00
2022-12-24T15:18:43.327Z,3.43
2022-12-24T15:21:19.935Z,3.40
2022-12-24T15:23:51.892Z,2.93
2022-12-24T15:26:27.102Z,3.70
2022-12-24T15:29:02.677Z,3.13
2022-12-24T15:31:33.023Z,3.37
2022-12-24T15:34:01.758Z,3.27
2022-12-24T15:36:33.090Z,3.67
2022-12-24T15:39:06.798Z,3.60
2022-12-24T15:41:59.615Z,2.80
2022-12-24T15:44:29.469Z,3.00
2022-12-24T15:47:00.641Z,3.00
2022-12-24T15:49:30.767Z,4.00
2022-12-24T15:52:06.003Z,4.03
2022-12-24T15:54:38.283Z,5.57
2022-12-24T15:57:23.664Z,5.87
2022-12-24T15:59:54.685Z,5.20
2022-12-24T16:02:39.444Z,6.13
2022-12-24T16:05:35.971Z,6.70
2022-12-24T16:08:10.373Z,4.90
2022-12-24T16:10:43.060Z,4.33
2022-12-24T16:13:17.724Z,4.57
2022-12-24T16:15:49.943Z,5.17
2022-12-24T16:18:31.459Z,5.30
2022-12-24T16:21:00.670Z,5.40
2022-12-24T16:23:36.239Z,4.23
2022-12-24T16:26:06.404Z,4.90
2022-12-24T16:28:35.029Z,5.60
2022-12-24T16:31:03.817Z,4.30
2022-12-24T16:33:32.327Z,4.00
2022-12-24T16:36:00.859Z,4.27
2022-12-24T16:38:49.281Z,3.63
2022-12-24T16:41:19.151Z,3.30
2022-12-24T16:43:52.584Z,3.70
2022-12-24T16:46:21.073Z,3.13
2022-12-24T16:48:50.509Z,3.33
2022-12-24T16:51:18.936Z,3.53
2022-12-24T16:53:47.323Z,2.87
2022-12-24T16:56:17.526Z,3.07
2022-12-24T16:58:47.429Z,2.67
2022-12-24T17:01:16.098Z,2.77
2022-12-24T17:03:44.733Z,2.83
2022-12-24T17:06:13.158Z,3.00
2022-12-24T17:08:41.606Z,3.70
2022-12-24T17:11:10.055Z,3.10
2022-12-24T17:13:38.659Z,3.80
2022-12-24T17:16:09.237Z,3.33
2022-12-24T17:18:37.732Z,3.60
2022-12-24T17:21:07.191Z,3.20
2022-12-24T17:23:35.699Z,3.50
2022-12-24T17:26:10.671Z,2.70
2022-12-24T17:28:42.037Z,2.90
2022-12-24T17:31:14.070Z,2.33
2022-12-24T17:33:42.616Z,2.90
2022-12-24T17:36:11.894Z,3.50
2022-12-24T17:38:40.373Z,4.20
2022-12-24T17:41:12.531Z,5.10
2022-12-24T17:43:40.948Z,5.27
2022-12-24T17:46:11.230Z,8.03
2022-12-24T17:48:41.092Z,4.87
2022-12-24T17:51:11.127Z,4.47
2022-12-24T17:53:41.263Z,4.33
2022-12-24T17:56:16.310Z,4.73
2022-12-24T17:58:46.536Z,4.47
2022-12-24T18:01:16.740Z,5.93
2022-12-24T18:03:47.646Z,6.50
2022-12-24T18:06:16.979Z,6.93
2022-12-24T18:08:47.014Z,6.33
2022-12-24T18:11:17.459Z,6.80
2022-12-24T18:13:46.918Z,14.10
2022-12-24T18:16:18.518Z,14.03
2022-12-24T18:18:49.073Z,8.87
2022-12-24T18:21:19.231Z,6.70
2022-12-24T18:23:49.200Z,5.47
2022-12-24T18:26:18.929Z,5.00
2022-12-24T18:28:48.659Z,4.80
2022-12-24T18:31:19.104Z,5.23
2022-12-24T18:33:50.332Z,4.93
2022-12-24T18:36:19.312Z,5.47
2022-12-24T18:38:48.229Z,4.80
2022-12-24T18:41:18.641Z,5.03
2022-12-24T18:43:47.317Z,5.23
2022-12-24T18:46:18.992Z,5.50
2022-12-24T18:48:49.268Z,5.07
2022-12-24T18:51:18.831Z,5.33
2022-12-24T18:53:47.335Z,5.27
2022-12-24T18:56:17.835Z,5.70
2022-12-24T18:58:47.217Z,5.53
2022-12-24T19:01:18.087Z,5.60
2022-12-24T19:03:49.539Z,5.37
2022-12-24T19:06:18.246Z,4.77
2022-12-24T19:08:57.130Z,5.73
2022-12-24T19:11:27.916Z,5.47
2022-12-24T19:13:58.290Z,5.40
2022-12-24T19:16:27.812Z,5.53
2022-12-24T19:18:58.424Z,6.43
2022-12-24T19:21:27.062Z,6.87
2022-12-24T19:23:55.545Z,5.83
2022-12-24T19:26:24.227Z,5.53
2022-12-24T19:28:53.296Z,4.93
2022-12-24T19:31:25.654Z,5.43
2022-12-24T19:33:56.601Z,5.93
2022-12-24T19:36:29.024Z,5.83
2022-12-24T19:38:57.608Z,5.70
2022-12-24T19:41:28.222Z,5.90
2022-12-24T19:43:58.987Z,5.33
2022-12-24T19:46:29.813Z,6.10
2022-12-24T19:49:00.585Z,7.87
2022-12-24T19:51:31.024Z,7.03
2022-12-24T19:54:00.954Z,10.70
2022-12-24T19:56:33.014Z,7.53
2022-12-24T19:59:02.846Z,7.20
2022-12-24T20:01:33.362Z,8.80
2022-12-24T20:04:03.895Z,8.37
2022-12-24T20:06:36.550Z,8.43
2022-12-24T20:09:08.642Z,8.57
2022-12-24T20:11:37.165Z,10.03
2022-12-24T20:14:07.472Z,8.20
2022-12-24T20:16:37.035Z,7.07
2022-12-24T20:19:07.755Z,6.87
2022-12-24T20:21:38.217Z,6.30
2022-12-24T20:24:07.801Z,6.17
2022-12-24T20:26:36.854Z,6.70
2022-12-24T20:29:06.630Z,7.00
2022-12-24T20:31:35.745Z,6.70
2022-12-24T20:34:05.712Z,6.17
2022-12-24T20:36:34.877Z,6.43
2022-12-24T20:39:06.009Z,6.17
2022-12-24T20:41:34.908Z,6.17
2022-12-24T20:44:04.822Z,6.53
2022-12-24T20:46:34.990Z,6.33
2022-12-24T20:49:03.777Z,6.33
2022-12-24T20:51:32.657Z,6.57
2022-12-24T20:54:02.381Z,6.83
2022-12-24T20:56:32.694Z,5.97
2022-12-24T20:59:02.405Z,6.17
2022-12-24T21:01:31.166Z,6.77
2022-12-24T21:04:04.953Z,6.77
2022-12-24T21:06:34.287Z,6.83
2022-12-24T21:09:03.127Z,7.33
2022-12-24T21:11:49.504Z,7.47
2022-12-24T21:14:19.902Z,6.30
2022-12-24T21:16:48.943Z,7.53
2022-12-24T21:19:20.975Z,7.33
2022-12-24T21:21:49.670Z,7.17
2022-12-24T21:24:18.642Z,7.07
2022-12-24T21:26:48.678Z,7.27
2022-12-24T21:29:17.108Z,8.37
2022-12-24T21:31:46.056Z,9.07
2022-12-24T21:34:15.120Z,8.60
2022-12-24T21:36:43.524Z,8.03
2022-12-24T21:39:13.116Z,7.60
2022-12-24T21:41:41.589Z,8.23
2022-12-24T21:44:11.515Z,8.33
2022-12-24T21:46:40.280Z,9.80
2022-12-24T21:49:28.891Z,9.17
2022-12-24T21:51:57.531Z,8.17
2022-12-24T21:54:27.820Z,9.93
2022-12-24T21:57:16.011Z,8.50
2022-12-24T21:59:46.516Z,8.80
2022-12-24T22:02:16.748Z,8.33
2022-12-24T22:04:46.623Z,8.03
2022-12-24T22:07:45.896Z,7.23
2022-12-24T22:10:33.339Z,6.53
2022-12-24T22:13:06.570Z,6.77
2022-12-24T22:15:38.377Z,7.03
2022-12-24T22:18:08.388Z,7.20
2022-12-24T22:20:37.333Z,7.53
2022-12-24T22:23:05.939Z,7.40
2022-12-24T22:25:35.019Z,7.07
2022-12-24T22:28:03.902Z,7.80
2022-12-24T22:30:32.651Z,7.30
2022-12-24T22:33:02.738Z,7.70
2022-12-24T22:35:31.741Z,7.90
2022-12-24T22:38:00.717Z,7.57
2022-12-24T22:40:29.306Z,6.90
2022-12-24T22:42:57.798Z,6.60
2022-12-24T22:45:26.204Z,7.23
2022-12-24T22:47:54.642Z,6.90
2022-12-24T22:50:24.888Z,6.77
2022-12-24T22:52:54.121Z,7.77
2022-12-24T22:55:22.690Z,7.57
2022-12-24T22:57:51.058Z,8.30
2022-12-24T23:00:39.745Z,9.47
2022-12-24T23:03:08.845Z,11.23
2022-12-24T23:05:39.792Z,9.40
2022-12-24T23:08:08.882Z,9.57
2022-12-24T23:10:37.925Z,8.50
2022-12-24T23:13:24.104Z,7.07
2022-12-24T23:15:52.684Z,7.03
2022-12-24T23:18:21.096Z,9.73
2022-12-24T23:20:50.937Z,7.70
2022-12-24T23:23:19.502Z,6.17
2022-12-24T23:25:47.984Z,6.20
2022-12-24T23:28:16.442Z,6.23
2022-12-24T23:30:44.983Z,6.93
2022-12-24T23:33:13.491Z,6.30
2022-12-24T23:35:41.904Z,7.03
2022-12-24T23:38:11.693Z,7.30
2022-12-24T23:40:43.585Z,7.47
2022-12-24T23:43:12.126Z,8.00
2022-12-24T23:45:40.670Z,8.33
2022-12-24T23:48:09.117Z,7.87
2022-12-24T23:50:38.012Z,7.57
2022-12-24T23:53:06.466Z,7.60
2022-12-24T23:55:36.425Z,7.33
2022-12-24T23:58:05.764Z,6.90
